sensor_id;sensor_type;location;lat;lon;timestamp;P1;durP1;ratioP1;P2;durP2;ratioP2
41966;SDS011;27656;53.068;8.818;2022-09-17T00:00:18;12.23;;;2.73;;
41966;SDS011;27656;53.068;8.818;2022-09-17T00:02:44;16.00;;;2.87;;
41966;SDS011;27656;53.068;8.818;2022-09-17T00:05:16;23.83;;;2.37;;
41966;SDS011;27656;53.068;8.818;2022-09-17T00:07:43;14.43;;;2.00;;
41966;SDS011;27656;53.068;8.818;2022-09-17T00:10:09;14.97;;;2.50;;
41966;SDS011;27656;53.068;8.818;2022-09-17T00:12:36;12.00;;;2.50;;
41966;SDS011;27656;53.068;8.818;2022-09-17T00:15:02;14.97;;;2.63;;
41966;SDS011;27656;53.068;8.818;2022-09-17T00:17:29;19.13;;;2.50;;
41966;SDS011;27656;53.068;8.818;2022-09-17T00:19:55;15.37;;;2.30;;
41966;SDS011;27656;53.068;8.818;2022-09-17T00:22:22;13.07;;;2.53;;
41966;SDS011;27656;53.068;8.818;2022-09-17T00:24:49;21.53;;;2.67;;
41966;SDS011;27656;53.068;8.818;2022-09-17T00:27:15;21.87;;;2.87;;
41966;SDS011;27656;53.068;8.818;2022-09-17T00:29:42;28.00;;;3.43;;
41966;SDS011;27656;53.068;8.818;2022-09-17T00:32:09;18.33;;;2.73;;
41966;SDS011;27656;53.068;8.818;2022-09-17T00:34:36;21.10;;;2.50;;
41966;SDS011;27656;53.068;8.818;2022-09-17T00:37:03;28.07;;;3.07;;
41966;SDS011;27656;53.068;8.818;2022-09-17T00:39:30;21.60;;;2.50;;
41966;SDS011;27656;53.068;8.818;2022-09-17T00:41:56;29.97;;;3.03;;
41966;SDS011;27656;53.068;8.818;2022-09-17T00:47:14;15.90;;;3.37;;
41966;SDS011;27656;53.068;8.818;2022-09-17T00:49:48;21.47;;;2.70;;
41966;SDS011;27656;53.068;8.818;2022-09-17T00:52:27;15.00;;;2.73;;
41966;SDS011;27656;53.068;8.818;2022-09-17T00:54:59;18.37;;;3.00;;
41966;SDS011;27656;53.068;8.818;2022-09-17T00:57:29;19.33;;;3.20;;
41966;SDS011;27656;53.068;8.818;2022-09-17T00:59:56;16.83;;;2.63;;
41966;SDS011;27656;53.068;8.818;2022-09-17T01:02:22;20.57;;;2.67;;
41966;SDS011;27656;53.068;8.818;2022-09-17T01:04:50;21.43;;;2.53;;
41966;SDS011;27656;53.068;8.818;2022-09-17T01:07:30;20.93;;;2.70;;
41966;SDS011;27656;53.068;8.818;2022-09-17T01:10:06;13.60;;;3.00;;
41966;SDS011;27656;53.068;8.818;2022-09-17T01:15:19;17.70;;;2.83;;
41966;SDS011;27656;53.068;8.818;2022-09-17T01:18:00;16.67;;;2.20;;
41966;SDS011;27656;53.068;8.818;2022-09-17T01:30:03;17.40;;;4.10;;
41966;SDS011;27656;53.068;8.818;2022-09-17T01:32:22;17.97;;;2.83;;
41966;SDS011;27656;53.068;8.818;2022-09-17T01:37:35;19.30;;;3.07;;
41966;SDS011;27656;53.068;8.818;2022-09-17T01:48:31;20.43;;;3.00;;
41966;SDS011;27656;53.068;8.818;2022-09-17T01:51:06;12.30;;;2.20;;
41966;SDS011;27656;53.068;8.818;2022-09-17T01:53:37;13.23;;;2.40;;
41966;SDS011;27656;53.068;8.818;2022-09-17T01:56:30;11.00;;;2.23;;
41966;SDS011;27656;53.068;8.818;2022-09-17T01:59:07;16.23;;;2.53;;
41966;SDS011;27656;53.068;8.818;2022-09-17T02:01:37;27.83;;;3.00;;
41966;SDS011;27656;53.068;8.818;2022-09-17T02:04:08;26.77;;;3.80;;
41966;SDS011;27656;53.068;8.818;2022-09-17T02:06:40;16.30;;;2.43;;
41966;SDS011;27656;53.068;8.818;2022-09-17T02:09:28;21.00;;;3.00;;
41966;SDS011;27656;53.068;8.818;2022-09-17T02:11:58;12.53;;;2.50;;
41966;SDS011;27656;53.068;8.818;2022-09-17T02:14:28;17.50;;;2.53;;
41966;SDS011;27656;53.068;8.818;2022-09-17T02:17:00;12.87;;;2.50;;
41966;SDS011;27656;53.068;8.818;2022-09-17T02:19:31;21.10;;;2.80;;
41966;SDS011;27656;53.068;8.818;2022-09-17T02:22:13;19.97;;;2.80;;
41966;SDS011;27656;53.068;8.818;2022-09-17T02:25:03;20.97;;;3.07;;
41966;SDS011;27656;53.068;8.818;2022-09-17T02:27:44;18.40;;;2.70;;
41966;SDS011;27656;53.068;8.818;2022-09-17T02:30:14;16.00;;;2.77;;
41966;SDS011;27656;53.068;8.818;2022-09-17T02:32:41;15.47;;;2.50;;
41966;SDS011;27656;53.068;8.818;2022-09-17T02:35:09;18.83;;;2.53;;
41966;SDS011;27656;53.068;8.818;2022-09-17T02:37:36;16.23;;;3.53;;
41966;SDS011;27656;53.068;8.818;2022-09-17T02:40:03;18.37;;;2.57;;
41966;SDS011;27656;53.068;8.818;2022-09-17T02:48:08;17.77;;;2.27;;
41966;SDS011;27656;53.068;8.818;2022-09-17T02:53:53;20.63;;;2.43;;
41966;SDS011;27656;53.068;8.818;2022-09-17T02:56:36;21.57;;;2.80;;
41966;SDS011;27656;53.068;8.818;2022-09-17T02:59:31;14.77;;;2.57;;
41966;SDS011;27656;53.068;8.818;2022-09-17T03:02:11;24.37;;;2.57;;
41966;SDS011;27656;53.068;8.818;2022-09-17T03:04:43;14.23;;;2.30;;
41966;SDS011;27656;53.068;8.818;2022-09-17T03:07:12;18.07;;;2.70;;
41966;SDS011;27656;53.068;8.818;2022-09-17T03:09:39;14.67;;;2.67;;
41966;SDS011;27656;53.068;8.818;2022-09-17T03:12:06;16.00;;;2.60;;
41966;SDS011;27656;53.068;8.818;2022-09-17T03:14:33;14.73;;;2.53;;
41966;SDS011;27656;53.068;8.818;2022-09-17T03:17:00;14.63;;;2.53;;
41966;SDS011;27656;53.068;8.818;2022-09-17T03:19:26;13.47;;;2.00;;
41966;SDS011;27656;53.068;8.818;2022-09-17T03:21:53;17.87;;;2.63;;
41966;SDS011;27656;53.068;8.818;2022-09-17T03:24:19;12.17;;;2.57;;
41966;SDS011;27656;53.068;8.818;2022-09-17T03:26:46;12.47;;;2.20;;
41966;SDS011;27656;53.068;8.818;2022-09-17T03:29:14;13.30;;;2.73;;
41966;SDS011;27656;53.068;8.818;2022-09-17T03:31:42;15.47;;;2.27;;
41966;SDS011;27656;53.068;8.818;2022-09-17T03:34:08;20.93;;;2.80;;
41966;SDS011;27656;53.068;8.818;2022-09-17T03:36:35;17.93;;;2.80;;
41966;SDS011;27656;53.068;8.818;2022-09-17T03:39:01;21.03;;;2.80;;
41966;SDS011;27656;53.068;8.818;2022-09-17T03:41:28;12.77;;;2.20;;
41966;SDS011;27656;53.068;8.818;2022-09-17T03:43:54;10.83;;;2.30;;
41966;SDS011;27656;53.068;8.818;2022-09-17T03:46:21;20.87;;;3.30;;
41966;SDS011;27656;53.068;8.818;2022-09-17T03:48:47;14.37;;;2.63;;
41966;SDS011;27656;53.068;8.818;2022-09-17T03:51:14;19.63;;;2.80;;
41966;SDS011;27656;53.068;8.818;2022-09-17T03:53:41;15.30;;;2.13;;
41966;SDS011;27656;53.068;8.818;2022-09-17T03:56:08;18.63;;;2.50;;
41966;SDS011;27656;53.068;8.818;2022-09-17T03:58:34;15.57;;;2.63;;
41966;SDS011;27656;53.068;8.818;2022-09-17T04:01:01;15.27;;;2.93;;
41966;SDS011;27656;53.068;8.818;2022-09-17T04:03:29;13.20;;;2.53;;
41966;SDS011;27656;53.068;8.818;2022-09-17T04:05:56;17.37;;;2.63;;
41966;SDS011;27656;53.068;8.818;2022-09-17T04:08:22;17.30;;;2.37;;
41966;SDS011;27656;53.068;8.818;2022-09-17T04:10:49;17.70;;;2.60;;
41966;SDS011;27656;53.068;8.818;2022-09-17T04:13:17;17.87;;;2.50;;
41966;SDS011;27656;53.068;8.818;2022-09-17T04:15:44;14.30;;;2.60;;
41966;SDS011;27656;53.068;8.818;2022-09-17T04:18:11;18.10;;;2.53;;
41966;SDS011;27656;53.068;8.818;2022-09-17T04:20:38;16.30;;;2.33;;
41966;SDS011;27656;53.068;8.818;2022-09-17T04:23:05;15.23;;;2.60;;
41966;SDS011;27656;53.068;8.818;2022-09-17T04:25:34;12.93;;;2.83;;
41966;SDS011;27656;53.068;8.818;2022-09-17T04:28:01;17.37;;;3.13;;
41966;SDS011;27656;53.068;8.818;2022-09-17T04:30:28;14.03;;;2.23;;
41966;SDS011;27656;53.068;8.818;2022-09-17T04:32:54;19.17;;;2.60;;
41966;SDS011;27656;53.068;8.818;2022-09-17T04:35:21;16.07;;;2.93;;
41966;SDS011;27656;53.068;8.818;2022-09-17T04:37:51;14.60;;;2.03;;
41966;SDS011;27656;53.068;8.818;2022-09-17T04:40:18;17.97;;;2.23;;
41966;SDS011;27656;53.068;8.818;2022-09-17T04:42:45;15.00;;;2.50;;
41966;SDS011;27656;53.068;8.818;2022-09-17T04:45:12;10.80;;;2.17;;
41966;SDS011;27656;53.068;8.818;2022-09-17T04:47:38;16.37;;;2.50;;
41966;SDS011;27656;53.068;8.818;2022-09-17T04:50:05;13.70;;;2.27;;
41966;SDS011;27656;53.068;8.818;2022-09-17T04:52:32;17.37;;;2.50;;
41966;SDS011;27656;53.068;8.818;2022-09-17T04:54:58;22.40;;;2.77;;
41966;SDS011;27656;53.068;8.818;2022-09-17T04:57:25;11.57;;;1.83;;
41966;SDS011;27656;53.068;8.818;2022-09-17T04:59:52;13.70;;;2.37;;
41966;SDS011;27656;53.068;8.818;2022-09-17T05:02:18;13.20;;;2.47;;
41966;SDS011;27656;53.068;8.818;2022-09-17T05:04:45;19.80;;;2.30;;
41966;SDS011;27656;53.068;8.818;2022-09-17T05:07:12;17.07;;;2.30;;
41966;SDS011;27656;53.068;8.818;2022-09-17T05:09:39;17.17;;;2.93;;
41966;SDS011;27656;53.068;8.818;2022-09-17T05:12:05;18.37;;;2.57;;
41966;SDS011;27656;53.068;8.818;2022-09-17T05:14:32;13.57;;;2.70;;
41966;SDS011;27656;53.068;8.818;2022-09-17T05:16:58;16.57;;;2.40;;
41966;SDS011;27656;53.068;8.818;2022-09-17T05:19:25;18.93;;;2.53;;
41966;SDS011;27656;53.068;8.818;2022-09-17T05:21:51;19.63;;;3.00;;
41966;SDS011;27656;53.068;8.818;2022-09-17T05:24:18;16.63;;;2.57;;
41966;SDS011;27656;53.068;8.818;2022-09-17T05:26:44;19.07;;;2.77;;
41966;SDS011;27656;53.068;8.818;2022-09-17T05:29:10;11.70;;;2.43;;
41966;SDS011;27656;53.068;8.818;2022-09-17T05:31:37;18.73;;;2.60;;
41966;SDS011;27656;53.068;8.818;2022-09-17T05:34:03;20.63;;;2.47;;
41966;SDS011;27656;53.068;8.818;2022-09-17T05:36:30;21.27;;;3.03;;
41966;SDS011;27656;53.068;8.818;2022-09-17T05:38:56;17.17;;;2.87;;
41966;SDS011;27656;53.068;8.818;2022-09-17T05:41:23;10.87;;;2.50;;
41966;SDS011;27656;53.068;8.818;2022-09-17T05:43:49;18.20;;;2.90;;
41966;SDS011;27656;53.068;8.818;2022-09-17T05:46:16;22.83;;;3.20;;
41966;SDS011;27656;53.068;8.818;2022-09-17T05:48:42;15.33;;;3.07;;
41966;SDS011;27656;53.068;8.818;2022-09-17T05:51:09;14.00;;;2.17;;
41966;SDS011;27656;53.068;8.818;2022-09-17T05:53:35;15.30;;;2.60;;
41966;SDS011;27656;53.068;8.818;2022-09-17T05:56:02;15.23;;;2.90;;
41966;SDS011;27656;53.068;8.818;2022-09-17T05:58:29;13.77;;;2.70;;
41966;SDS011;27656;53.068;8.818;2022-09-17T06:00:59;17.33;;;2.93;;
41966;SDS011;27656;53.068;8.818;2022-09-17T06:03:26;12.53;;;2.90;;
41966;SDS011;27656;53.068;8.818;2022-09-17T06:05:53;17.33;;;2.40;;
41966;SDS011;27656;53.068;8.818;2022-09-17T06:08:21;13.87;;;3.20;;
41966;SDS011;27656;53.068;8.818;2022-09-17T06:10:48;16.80;;;2.50;;
41966;SDS011;27656;53.068;8.818;2022-09-17T06:13:15;18.43;;;2.70;;
41966;SDS011;27656;53.068;8.818;2022-09-17T06:15:48;15.40;;;2.37;;
41966;SDS011;27656;53.068;8.818;2022-09-17T06:18:15;10.77;;;2.50;;
41966;SDS011;27656;53.068;8.818;2022-09-17T06:20:42;17.27;;;2.20;;
41966;SDS011;27656;53.068;8.818;2022-09-17T06:23:08;11.50;;;2.23;;
41966;SDS011;27656;53.068;8.818;2022-09-17T06:25:41;16.47;;;3.10;;
41966;SDS011;27656;53.068;8.818;2022-09-17T06:28:07;13.90;;;2.27;;
41966;SDS011;27656;53.068;8.818;2022-09-17T06:30:35;15.90;;;2.53;;
41966;SDS011;27656;53.068;8.818;2022-09-17T06:33:01;13.23;;;2.17;;
41966;SDS011;27656;53.068;8.818;2022-09-17T06:35:28;13.87;;;2.47;;
41966;SDS011;27656;53.068;8.818;2022-09-17T06:37:54;15.33;;;3.23;;
41966;SDS011;27656;53.068;8.818;2022-09-17T06:40:21;10.50;;;2.53;;
41966;SDS011;27656;53.068;8.818;2022-09-17T06:42:48;16.73;;;2.57;;
41966;SDS011;27656;53.068;8.818;2022-09-17T06:45:15;18.90;;;2.27;;
41966;SDS011;27656;53.068;8.818;2022-09-17T06:47:42;16.17;;;2.40;;
41966;SDS011;27656;53.068;8.818;2022-09-17T06:50:08;23.33;;;2.40;;
41966;SDS011;27656;53.068;8.818;2022-09-17T06:52:35;16.27;;;2.70;;
41966;SDS011;27656;53.068;8.818;2022-09-17T06:55:01;11.93;;;2.43;;
41966;SDS011;27656;53.068;8.818;2022-09-17T06:57:28;12.93;;;3.20;;
41966;SDS011;27656;53.068;8.818;2022-09-17T06:59:54;17.60;;;2.53;;
41966;SDS011;27656;53.068;8.818;2022-09-17T07:02:21;21.97;;;3.17;;
41966;SDS011;27656;53.068;8.818;2022-09-17T07:04:47;15.93;;;2.30;;
41966;SDS011;27656;53.068;8.818;2022-09-17T07:07:14;16.73;;;2.27;;
41966;SDS011;27656;53.068;8.818;2022-09-17T07:09:40;11.53;;;1.93;;
41966;SDS011;27656;53.068;8.818;2022-09-17T07:12:07;12.60;;;2.20;;
41966;SDS011;27656;53.068;8.818;2022-09-17T07:14:34;21.20;;;3.13;;
41966;SDS011;27656;53.068;8.818;2022-09-17T07:17:01;15.93;;;2.70;;
41966;SDS011;27656;53.068;8.818;2022-09-17T07:19:28;15.40;;;2.30;;
41966;SDS011;27656;53.068;8.818;2022-09-17T07:21:54;19.40;;;2.73;;
41966;SDS011;27656;53.068;8.818;2022-09-17T07:24:21;12.27;;;2.33;;
41966;SDS011;27656;53.068;8.818;2022-09-17T07:26:48;14.60;;;2.10;;
41966;SDS011;27656;53.068;8.818;2022-09-17T07:29:15;11.30;;;2.30;;
41966;SDS011;27656;53.068;8.818;2022-09-17T07:31:41;19.20;;;2.73;;
41966;SDS011;27656;53.068;8.818;2022-09-17T07:34:08;14.30;;;2.30;;
41966;SDS011;27656;53.068;8.818;2022-09-17T07:36:35;12.67;;;2.30;;
41966;SDS011;27656;53.068;8.818;2022-09-17T07:39:01;13.77;;;2.17;;
41966;SDS011;27656;53.068;8.818;2022-09-17T07:41:28;23.93;;;2.90;;
41966;SDS011;27656;53.068;8.818;2022-09-17T07:43:54;24.20;;;2.93;;
41966;SDS011;27656;53.068;8.818;2022-09-17T07:46:21;16.40;;;2.83;;
41966;SDS011;27656;53.068;8.818;2022-09-17T07:48:48;13.70;;;3.20;;
41966;SDS011;27656;53.068;8.818;2022-09-17T07:51:19;19.30;;;3.60;;
41966;SDS011;27656;53.068;8.818;2022-09-17T07:53:50;12.93;;;2.57;;
41966;SDS011;27656;53.068;8.818;2022-09-17T07:56:17;12.33;;;2.83;;
41966;SDS011;27656;53.068;8.818;2022-09-17T07:58:43;18.90;;;2.53;;
41966;SDS011;27656;53.068;8.818;2022-09-17T08:01:10;12.77;;;2.73;;
41966;SDS011;27656;53.068;8.818;2022-09-17T08:03:38;16.43;;;3.00;;
41966;SDS011;27656;53.068;8.818;2022-09-17T08:06:06;16.00;;;2.53;;
41966;SDS011;27656;53.068;8.818;2022-09-17T08:08:37;17.97;;;2.30;;
41966;SDS011;27656;53.068;8.818;2022-09-17T08:11:11;13.10;;;2.70;;
41966;SDS011;27656;53.068;8.818;2022-09-17T08:13:49;8.17;;;2.20;;
41966;SDS011;27656;53.068;8.818;2022-09-17T08:16:17;13.37;;;2.77;;
41966;SDS011;27656;53.068;8.818;2022-09-17T08:18:44;11.67;;;2.17;;
41966;SDS011;27656;53.068;8.818;2022-09-17T08:21:12;10.23;;;1.83;;
41966;SDS011;27656;53.068;8.818;2022-09-17T08:23:43;15.97;;;2.37;;
41966;SDS011;27656;53.068;8.818;2022-09-17T08:26:11;11.20;;;2.10;;
41966;SDS011;27656;53.068;8.818;2022-09-17T08:28:43;15.43;;;2.67;;
41966;SDS011;27656;53.068;8.818;2022-09-17T08:31:10;15.83;;;2.00;;
41966;SDS011;27656;53.068;8.818;2022-09-17T08:33:37;13.93;;;2.17;;
41966;SDS011;27656;53.068;8.818;2022-09-17T08:36:05;12.87;;;1.90;;
41966;SDS011;27656;53.068;8.818;2022-09-17T08:38:34;10.10;;;2.07;;
41966;SDS011;27656;53.068;8.818;2022-09-17T08:43:51;13.90;;;1.57;;
41966;SDS011;27656;53.068;8.818;2022-09-17T08:46:22;7.70;;;1.83;;
41966;SDS011;27656;53.068;8.818;2022-09-17T08:58:18;11.03;;;1.53;;
41966;SDS011;27656;53.068;8.818;2022-09-17T09:00:45;5.83;;;1.53;;
41966;SDS011;27656;53.068;8.818;2022-09-17T09:05:51;5.83;;;1.60;;
41966;SDS011;27656;53.068;8.818;2022-09-17T09:08:24;8.93;;;1.60;;
41966;SDS011;27656;53.068;8.818;2022-09-17T09:10:56;6.87;;;1.53;;
41966;SDS011;27656;53.068;8.818;2022-09-17T09:13:26;9.23;;;1.77;;
41966;SDS011;27656;53.068;8.818;2022-09-17T09:15:58;6.93;;;1.60;;
41966;SDS011;27656;53.068;8.818;2022-09-17T09:18:28;8.57;;;1.60;;
41966;SDS011;27656;53.068;8.818;2022-09-17T09:21:09;10.13;;;1.80;;
41966;SDS011;27656;53.068;8.818;2022-09-17T09:26:40;9.23;;;1.93;;
41966;SDS011;27656;53.068;8.818;2022-09-17T09:31:58;9.33;;;1.77;;
41966;SDS011;27656;53.068;8.818;2022-09-17T09:34:26;12.73;;;2.00;;
41966;SDS011;27656;53.068;8.818;2022-09-17T09:39:39;11.10;;;1.97;;
41966;SDS011;27656;53.068;8.818;2022-09-17T09:42:31;6.83;;;1.50;;
41966;SDS011;27656;53.068;8.818;2022-09-17T09:45:00;10.93;;;2.40;;
41966;SDS011;27656;53.068;8.818;2022-09-17T09:47:37;8.13;;;1.90;;
41966;SDS011;27656;53.068;8.818;2022-09-17T09:50:16;11.53;;;1.70;;
41966;SDS011;27656;53.068;8.818;2022-09-17T09:53:11;13.70;;;1.90;;
41966;SDS011;27656;53.068;8.818;2022-09-17T09:58:34;12.50;;;1.83;;
41966;SDS011;27656;53.068;8.818;2022-09-17T10:01:03;13.63;;;2.60;;
41966;SDS011;27656;53.068;8.818;2022-09-17T10:03:37;6.90;;;1.80;;
41966;SDS011;27656;53.068;8.818;2022-09-17T10:06:06;11.87;;;2.00;;
41966;SDS011;27656;53.068;8.818;2022-09-17T10:08:36;7.93;;;1.80;;
41966;SDS011;27656;53.068;8.818;2022-09-17T10:13:39;11.07;;;2.17;;
41966;SDS011;27656;53.068;8.818;2022-09-17T10:21:34;5.33;;;1.57;;
41966;SDS011;27656;53.068;8.818;2022-09-17T10:24:20;6.33;;;1.40;;
41966;SDS011;27656;53.068;8.818;2022-09-17T10:26:50;8.07;;;1.50;;
41966;SDS011;27656;53.068;8.818;2022-09-17T10:29:18;5.33;;;1.40;;
41966;SDS011;27656;53.068;8.818;2022-09-17T10:34:24;3.33;;;1.10;;
41966;SDS011;27656;53.068;8.818;2022-09-17T10:36:52;5.73;;;1.20;;
41966;SDS011;27656;53.068;8.818;2022-09-17T10:44:36;6.33;;;1.07;;
41966;SDS011;27656;53.068;8.818;2022-09-17T10:47:13;8.03;;;1.60;;
41966;SDS011;27656;53.068;8.818;2022-09-17T10:50:33;5.10;;;0.90;;
41966;SDS011;27656;53.068;8.818;2022-09-17T10:52:48;5.40;;;1.40;;
41966;SDS011;27656;53.068;8.818;2022-09-17T10:55:27;7.03;;;1.27;;
41966;SDS011;27656;53.068;8.818;2022-09-17T10:58:01;6.80;;;1.40;;
41966;SDS011;27656;53.068;8.818;2022-09-17T11:00:43;7.17;;;1.53;;
41966;SDS011;27656;53.068;8.818;2022-09-17T11:03:21;5.20;;;1.60;;
41966;SDS011;27656;53.068;8.818;2022-09-17T11:09:19;9.23;;;1.90;;
41966;SDS011;27656;53.068;8.818;2022-09-17T11:36:32;7.53;;;1.70;;
41966;SDS011;27656;53.068;8.818;2022-09-17T11:39:18;6.77;;;1.80;;
41966;SDS011;27656;53.068;8.818;2022-09-17T11:41:49;5.07;;;1.30;;
41966;SDS011;27656;53.068;8.818;2022-09-17T11:47:13;10.23;;;1.40;;
41966;SDS011;27656;53.068;8.818;2022-09-17T11:49:49;6.20;;;1.40;;
41966;SDS011;27656;53.068;8.818;2022-09-17T11:52:27;5.37;;;1.33;;
41966;SDS011;27656;53.068;8.818;2022-09-17T11:55:17;4.37;;;1.33;;
41966;SDS011;27656;53.068;8.818;2022-09-17T11:57:48;7.93;;;2.10;;
41966;SDS011;27656;53.068;8.818;2022-09-17T12:00:18;9.20;;;1.37;;
41966;SDS011;27656;53.068;8.818;2022-09-17T12:07:55;5.50;;;1.30;;
41966;SDS011;27656;53.068;8.818;2022-09-17T12:13:25;5.17;;;1.37;;
41966;SDS011;27656;53.068;8.818;2022-09-17T12:16:08;6.23;;;1.50;;
41966;SDS011;27656;53.068;8.818;2022-09-17T12:21:08;6.33;;;1.50;;
41966;SDS011;27656;53.068;8.818;2022-09-17T12:23:54;8.40;;;1.67;;
41966;SDS011;27656;53.068;8.818;2022-09-17T12:31:42;7.90;;;1.37;;
41966;SDS011;27656;53.068;8.818;2022-09-17T12:40:26;9.13;;;2.80;;
41966;SDS011;27656;53.068;8.818;2022-09-17T12:45:31;9.60;;;2.30;;
41966;SDS011;27656;53.068;8.818;2022-09-17T12:50:54;14.63;;;2.63;;
41966;SDS011;27656;53.068;8.818;2022-09-17T12:56:49;14.23;;;2.23;;
41966;SDS011;27656;53.068;8.818;2022-09-17T12:59:37;10.13;;;2.13;;
41966;SDS011;27656;53.068;8.818;2022-09-17T13:02:15;13.93;;;2.17;;
41966;SDS011;27656;53.068;8.818;2022-09-17T13:07:48;10.07;;;2.20;;
41966;SDS011;27656;53.068;8.818;2022-09-17T13:10:49;11.63;;;2.13;;
41966;SDS011;27656;53.068;8.818;2022-09-17T13:19:05;13.90;;;2.80;;
41966;SDS011;27656;53.068;8.818;2022-09-17T13:21:54;11.37;;;2.00;;
41966;SDS011;27656;53.068;8.818;2022-09-17T13:24:26;14.47;;;2.43;;
41966;SDS011;27656;53.068;8.818;2022-09-17T13:26:56;11.23;;;1.53;;
41966;SDS011;27656;53.068;8.818;2022-09-17T13:32:08;8.27;;;2.27;;
41966;SDS011;27656;53.068;8.818;2022-09-17T13:34:56;11.93;;;1.80;;
41966;SDS011;27656;53.068;8.818;2022-09-17T13:37:24;11.43;;;2.67;;
41966;SDS011;27656;53.068;8.818;2022-09-17T13:39:52;13.57;;;2.50;;
41966;SDS011;27656;53.068;8.818;2022-09-17T13:42:20;14.20;;;2.50;;
41966;SDS011;27656;53.068;8.818;2022-09-17T13:45:09;10.93;;;2.30;;
41966;SDS011;27656;53.068;8.818;2022-09-17T13:50:24;14.03;;;2.67;;
41966;SDS011;27656;53.068;8.818;2022-09-17T13:52:54;17.53;;;2.70;;
41966;SDS011;27656;53.068;8.818;2022-09-17T13:55:35;13.60;;;2.47;;
41966;SDS011;27656;53.068;8.818;2022-09-17T13:58:09;15.43;;;3.17;;
41966;SDS011;27656;53.068;8.818;2022-09-17T14:00:48;9.03;;;2.03;;
41966;SDS011;27656;53.068;8.818;2022-09-17T14:05:57;11.30;;;1.77;;
41966;SDS011;27656;53.068;8.818;2022-09-17T14:13:53;12.93;;;2.63;;
41966;SDS011;27656;53.068;8.818;2022-09-17T14:21:42;14.17;;;2.80;;
41966;SDS011;27656;53.068;8.818;2022-09-17T14:24:22;12.80;;;2.23;;
41966;SDS011;27656;53.068;8.818;2022-09-17T14:32:35;14.93;;;2.10;;
41966;SDS011;27656;53.068;8.818;2022-09-17T14:37:47;11.83;;;1.80;;
41966;SDS011;27656;53.068;8.818;2022-09-17T14:40:17;11.87;;;2.47;;
41966;SDS011;27656;53.068;8.818;2022-09-17T14:42:45;13.43;;;2.27;;
41966;SDS011;27656;53.068;8.818;2022-09-17T14:45:16;11.40;;;2.40;;
41966;SDS011;27656;53.068;8.818;2022-09-17T14:47:45;12.93;;;2.13;;
41966;SDS011;27656;53.068;8.818;2022-09-17T14:50:22;14.93;;;2.07;;
41966;SDS011;27656;53.068;8.818;2022-09-17T14:52:50;11.90;;;2.30;;
41966;SDS011;27656;53.068;8.818;2022-09-17T14:57:53;12.33;;;2.27;;
41966;SDS011;27656;53.068;8.818;2022-09-17T15:00:24;13.67;;;1.77;;
41966;SDS011;27656;53.068;8.818;2022-09-17T15:02:54;11.93;;;2.30;;
41966;SDS011;27656;53.068;8.818;2022-09-17T15:05:28;12.20;;;2.57;;
41966;SDS011;27656;53.068;8.818;2022-09-17T15:08:12;15.33;;;2.07;;
41966;SDS011;27656;53.068;8.818;2022-09-17T15:10:55;14.43;;;2.93;;
41966;SDS011;27656;53.068;8.818;2022-09-17T15:13:25;16.50;;;2.80;;
41966;SDS011;27656;53.068;8.818;2022-09-17T15:15:57;14.90;;;2.57;;
41966;SDS011;27656;53.068;8.818;2022-09-17T15:18:32;18.50;;;2.33;;
41966;SDS011;27656;53.068;8.818;2022-09-17T15:21:02;12.33;;;2.23;;
41966;SDS011;27656;53.068;8.818;2022-09-17T15:23:30;15.37;;;1.90;;
41966;SDS011;27656;53.068;8.818;2022-09-17T15:25:59;15.27;;;1.97;;
41966;SDS011;27656;53.068;8.818;2022-09-17T15:28:27;13.33;;;2.60;;
41966;SDS011;27656;53.068;8.818;2022-09-17T15:31:01;15.13;;;3.17;;
41966;SDS011;27656;53.068;8.818;2022-09-17T15:33:28;11.00;;;2.10;;
41966;SDS011;27656;53.068;8.818;2022-09-17T15:35:58;21.83;;;2.80;;
41966;SDS011;27656;53.068;8.818;2022-09-17T15:38:26;18.80;;;2.57;;
41966;SDS011;27656;53.068;8.818;2022-09-17T15:40:54;19.40;;;3.57;;
41966;SDS011;27656;53.068;8.818;2022-09-17T15:45:56;12.00;;;3.27;;
41966;SDS011;27656;53.068;8.818;2022-09-17T15:50:56;13.97;;;3.33;;
41966;SDS011;27656;53.068;8.818;2022-09-17T15:53:25;13.80;;;2.30;;
41966;SDS011;27656;53.068;8.818;2022-09-17T16:08:45;13.73;;;2.27;;
41966;SDS011;27656;53.068;8.818;2022-09-17T16:11:16;9.17;;;1.90;;
41966;SDS011;27656;53.068;8.818;2022-09-17T16:13:44;14.20;;;2.33;;
41966;SDS011;27656;53.068;8.818;2022-09-17T16:16:16;13.37;;;2.50;;
41966;SDS011;27656;53.068;8.818;2022-09-17T16:18:44;14.67;;;2.93;;
41966;SDS011;27656;53.068;8.818;2022-09-17T16:21:14;11.93;;;1.73;;
41966;SDS011;27656;53.068;8.818;2022-09-17T16:23:43;8.20;;;1.70;;
41966;SDS011;27656;53.068;8.818;2022-09-17T16:26:14;12.63;;;2.13;;
41966;SDS011;27656;53.068;8.818;2022-09-17T16:28:43;7.83;;;1.93;;
41966;SDS011;27656;53.068;8.818;2022-09-17T16:31:12;12.50;;;2.00;;
41966;SDS011;27656;53.068;8.818;2022-09-17T16:33:39;14.50;;;1.80;;
41966;SDS011;27656;53.068;8.818;2022-09-17T16:36:05;6.80;;;1.33;;
41966;SDS011;27656;53.068;8.818;2022-09-17T16:38:32;9.07;;;1.50;;
41966;SDS011;27656;53.068;8.818;2022-09-17T16:41:02;9.70;;;1.67;;
41966;SDS011;27656;53.068;8.818;2022-09-17T16:43:31;11.77;;;2.07;;
41966;SDS011;27656;53.068;8.818;2022-09-17T16:48:26;19.43;;;2.50;;
41966;SDS011;27656;53.068;8.818;2022-09-17T16:50:52;11.90;;;2.37;;
41966;SDS011;27656;53.068;8.818;2022-09-17T16:53:22;11.30;;;2.30;;
41966;SDS011;27656;53.068;8.818;2022-09-17T16:55:48;13.93;;;2.80;;
41966;SDS011;27656;53.068;8.818;2022-09-17T16:58:15;13.17;;;2.87;;
41966;SDS011;27656;53.068;8.818;2022-09-17T17:00:42;14.60;;;3.33;;
41966;SDS011;27656;53.068;8.818;2022-09-17T17:03:13;12.07;;;2.40;;
41966;SDS011;27656;53.068;8.818;2022-09-17T17:05:40;13.87;;;2.27;;
41966;SDS011;27656;53.068;8.818;2022-09-17T17:08:07;16.30;;;2.53;;
41966;SDS011;27656;53.068;8.818;2022-09-17T17:10:34;14.40;;;2.73;;
41966;SDS011;27656;53.068;8.818;2022-09-17T17:13:03;14.10;;;2.23;;
41966;SDS011;27656;53.068;8.818;2022-09-17T17:15:29;13.07;;;2.33;;
41966;SDS011;27656;53.068;8.818;2022-09-17T17:17:56;17.63;;;2.03;;
41966;SDS011;27656;53.068;8.818;2022-09-17T17:20:23;17.67;;;2.87;;
41966;SDS011;27656;53.068;8.818;2022-09-17T17:22:50;16.13;;;2.43;;
41966;SDS011;27656;53.068;8.818;2022-09-17T17:25:17;14.07;;;2.20;;
41966;SDS011;27656;53.068;8.818;2022-09-17T17:27:43;14.50;;;2.37;;
41966;SDS011;27656;53.068;8.818;2022-09-17T17:30:11;19.63;;;2.50;;
41966;SDS011;27656;53.068;8.818;2022-09-17T17:32:43;16.87;;;3.00;;
41966;SDS011;27656;53.068;8.818;2022-09-17T17:35:13;17.30;;;3.77;;
41966;SDS011;27656;53.068;8.818;2022-09-17T17:37:40;18.07;;;3.57;;
41966;SDS011;27656;53.068;8.818;2022-09-17T17:40:07;28.37;;;4.03;;
41966;SDS011;27656;53.068;8.818;2022-09-17T17:42:35;25.10;;;4.30;;
41966;SDS011;27656;53.068;8.818;2022-09-17T17:45:04;16.77;;;4.53;;
41966;SDS011;27656;53.068;8.818;2022-09-17T17:47:33;15.73;;;3.33;;
41966;SDS011;27656;53.068;8.818;2022-09-17T17:49:59;20.53;;;3.13;;
41966;SDS011;27656;53.068;8.818;2022-09-17T17:52:26;25.17;;;3.73;;
41966;SDS011;27656;53.068;8.818;2022-09-17T17:54:53;17.77;;;3.47;;
41966;SDS011;27656;53.068;8.818;2022-09-17T17:57:19;13.90;;;3.37;;
41966;SDS011;27656;53.068;8.818;2022-09-17T17:59:46;17.77;;;2.63;;
41966;SDS011;27656;53.068;8.818;2022-09-17T18:02:12;15.47;;;2.97;;
41966;SDS011;27656;53.068;8.818;2022-09-17T18:04:40;15.47;;;2.70;;
41966;SDS011;27656;53.068;8.818;2022-09-17T18:07:06;17.97;;;3.03;;
41966;SDS011;27656;53.068;8.818;2022-09-17T18:09:33;18.87;;;2.93;;